createdAt,value
2023-02-23T00:01:25.257Z,9.20
2023-02-23T00:04:30.396Z,7.80
2023-02-23T00:07:34.706Z,3.93
2023-02-23T00:10:38.793Z,3.33
2023-02-23T00:13:46.655Z,7.53
2023-02-23T00:16:50.654Z,9.98
2023-02-23T00:19:54.524Z,21.88
2023-02-23T00:22:59.086Z,12.27
2023-02-23T00:26:05.003Z,9.93
2023-02-23T00:29:13.540Z,16.20
2023-02-23T00:32:20.601Z,11.75
2023-02-23T00:35:25.895Z,7.07
2023-02-23T00:38:29.528Z,17.30
2023-02-23T00:41:33.534Z,18.83
2023-02-23T00:44:41.113Z,16.08
2023-02-23T00:47:46.063Z,13.43
2023-02-23T00:51:02.545Z,15.80
2023-02-23T00:54:05.913Z,16.10
2023-02-23T00:57:09.627Z,10.18
2023-02-23T01:00:21.984Z,14.57
2023-02-23T01:03:24.984Z,16.52
2023-02-23T01:06:28.992Z,17.85
2023-02-23T01:09:34.235Z,19.03
2023-02-23T01:12:40.979Z,15.63
2023-02-23T01:15:45.212Z,21.38
2023-02-23T01:18:49.834Z,22.05
2023-02-23T01:21:53.831Z,17.75
2023-02-23T01:24:57.370Z,23.02
2023-02-23T01:28:01.566Z,20.90
2023-02-23T01:31:10.286Z,23.50
2023-02-23T01:34:14.939Z,22.75
2023-02-23T01:37:21.007Z,15.82
2023-02-23T01:40:32.094Z,11.30
2023-02-23T01:43:38.009Z,9.73
2023-02-23T01:46:47.028Z,12.63
2023-02-23T01:49:52.509Z,12.32
2023-02-23T01:52:57.239Z,10.82
2023-02-23T01:56:30.060Z,13.30
2023-02-23T01:59:53.264Z,12.20
2023-02-23T02:02:59.072Z,11.47
2023-02-23T02:06:04.956Z,12.05
2023-02-23T02:09:17.846Z,10.57
2023-02-23T02:12:23.890Z,8.67
2023-02-23T02:15:33.838Z,8.25
2023-02-23T02:18:48.328Z,7.78
2023-02-23T02:22:07.172Z,10.32
2023-02-23T02:25:30.005Z,10.13
2023-02-23T02:28:33.611Z,13.60
2023-02-23T02:32:12.652Z,19.52
2023-02-23T02:35:39.541Z,15.30
2023-02-23T02:39:11.102Z,17.42
2023-02-23T02:42:18.558Z,14.88
2023-02-23T02:45:29.762Z,12.75
2023-02-23T02:49:15.351Z,10.43
2023-02-23T02:52:18.702Z,11.60
2023-02-23T02:55:28.975Z,18.30
2023-02-23T02:58:34.688Z,15.30
2023-02-23T03:01:57.030Z,17.60
2023-02-23T03:05:19.350Z,15.88
2023-02-23T03:08:51.069Z,13.55
2023-02-23T03:12:26.865Z,17.05
2023-02-23T03:16:01.455Z,14.83
2023-02-23T03:19:34.563Z,16.58
2023-02-23T03:23:12.910Z,16.20
2023-02-23T03:27:01.775Z,20.88
2023-02-23T03:30:34.788Z,18.87
2023-02-23T03:34:04.116Z,22.98
2023-02-23T03:37:37.882Z,18.15
2023-02-23T03:41:03.221Z,17.75
2023-02-23T03:44:32.708Z,17.00
2023-02-23T03:47:58.680Z,11.68
2023-02-23T03:51:26.070Z,13.88
2023-02-23T03:54:55.538Z,12.45
2023-02-23T03:58:21.275Z,7.83
2023-02-23T04:01:45.910Z,7.93
2023-02-23T04:05:09.017Z,8.88
2023-02-23T04:08:34.044Z,3.60
2023-02-23T04:12:11.379Z,5.30
2023-02-23T04:15:34.816Z,3.17
2023-02-23T04:18:40.601Z,4.65
2023-02-23T04:21:43.501Z,3.42
2023-02-23T04:24:49.410Z,3.17
2023-02-23T04:27:52.687Z,3.67
2023-02-23T04:30:56.709Z,4.97
2023-02-23T04:34:00.353Z,3.58
2023-02-23T04:37:04.025Z,4.30
2023-02-23T04:40:07.813Z,3.40
2023-02-23T04:43:14.475Z,3.17
2023-02-23T04:46:18.302Z,4.03
2023-02-23T04:49:45.800Z,2.55
2023-02-23T04:52:49.665Z,2.75
2023-02-23T04:55:52.499Z,3.95
2023-02-23T04:58:56.527Z,3.40
2023-02-23T05:02:01.140Z,3.35
2023-02-23T05:05:05.398Z,3.78
2023-02-23T05:08:08.486Z,6.13
2023-02-23T05:11:13.172Z,5.70
2023-02-23T05:14:16.703Z,7.15
2023-02-23T05:17:19.625Z,5.38
2023-02-23T05:20:23.406Z,5.88
2023-02-23T05:23:26.365Z,6.33
2023-02-23T05:26:29.426Z,4.88
2023-02-23T05:29:33.587Z,5.13
2023-02-23T05:32:37.503Z,5.25
2023-02-23T05:35:42.432Z,6.13
2023-02-23T05:38:47.076Z,5.75
2023-02-23T05:41:51.103Z,5.82
2023-02-23T05:44:54.006Z,5.57
2023-02-23T05:47:57.349Z,5.90
2023-02-23T05:51:05.570Z,5.10
2023-02-23T05:54:10.053Z,5.80
2023-02-23T05:57:13.266Z,4.85
2023-02-23T06:00:18.589Z,4.80
2023-02-23T06:03:23.183Z,4.30
2023-02-23T06:06:29.233Z,5.10
2023-02-23T06:09:32.139Z,4.88
2023-02-23T06:12:35.553Z,5.75
2023-02-23T06:15:38.920Z,6.17
2023-02-23T06:18:42.011Z,6.63
2023-02-23T06:21:45.585Z,6.25
2023-02-23T06:24:50.696Z,12.68
2023-02-23T06:27:55.319Z,4.97
2023-02-23T06:30:59.070Z,5.30
2023-02-23T06:34:02.785Z,4.20
2023-02-23T06:37:09.162Z,3.80
2023-02-23T06:40:12.692Z,3.50
2023-02-23T06:43:16.739Z,2.90
2023-02-23T06:46:20.491Z,4.97
2023-02-23T06:49:24.557Z,4.22
2023-02-23T06:52:28.170Z,3.60
2023-02-23T06:55:31.953Z,4.00
2023-02-23T06:58:34.851Z,4.43
2023-02-23T07:01:38.692Z,4.10
2023-02-23T07:04:42.321Z,3.47
2023-02-23T07:07:46.067Z,3.55
2023-02-23T07:10:49.100Z,3.00
2023-02-23T07:13:52.042Z,3.38
2023-02-23T07:16:56.021Z,2.72
2023-02-23T07:19:59.032Z,2.95
2023-02-23T07:23:02.940Z,2.85
2023-02-23T07:26:06.730Z,2.67
2023-02-23T07:29:13.293Z,2.77
2023-02-23T07:32:16.431Z,3.63
2023-02-23T07:35:20.408Z,2.95
2023-02-23T07:38:23.352Z,3.67
2023-02-23T07:41:26.966Z,3.13
2023-02-23T07:44:29.790Z,2.70
2023-02-23T07:47:33.117Z,4.25
2023-02-23T07:50:36.277Z,2.50
2023-02-23T07:53:41.525Z,2.03
2023-02-23T07:56:45.201Z,3.58
2023-02-23T07:59:49.665Z,2.00
2023-02-23T08:02:53.893Z,2.65
2023-02-23T08:05:57.895Z,4.07
2023-02-23T08:09:02.419Z,6.82
2023-02-23T08:12:06.903Z,3.53
2023-02-23T08:15:11.375Z,3.20
2023-02-23T08:18:15.231Z,3.63
2023-02-23T08:21:19.575Z,6.50
2023-02-23T08:24:23.393Z,5.57
2023-02-23T08:27:27.485Z,4.55
2023-02-23T08:30:32.278Z,2.03
2023-02-23T08:33:36.217Z,2.00
2023-02-23T08:36:39.768Z,3.28
2023-02-23T08:39:43.674Z,4.68
2023-02-23T08:42:46.920Z,4.90
2023-02-23T08:45:50.597Z,3.97
2023-02-23T08:48:54.291Z,4.68
2023-02-23T08:51:57.458Z,2.90
2023-02-23T08:55:01.091Z,2.73
2023-02-23T08:58:09.133Z,5.63
2023-02-23T09:01:22.479Z,5.10
2023-02-23T09:04:26.386Z,3.60
2023-02-23T09:07:29.673Z,4.10
2023-02-23T09:10:34.377Z,5.88
2023-02-23T09:13:37.369Z,5.13
2023-02-23T09:16:40.642Z,4.03
2023-02-23T09:19:44.129Z,6.97
2023-02-23T09:22:50.534Z,4.15
2023-02-23T09:25:54.251Z,3.95
2023-02-23T09:29:00.814Z,5.60
2023-02-23T09:32:04.778Z,5.83
2023-02-23T09:35:09.178Z,6.25
2023-02-23T09:38:12.125Z,5.65
2023-02-23T09:42:01.475Z,6.15
2023-02-23T09:45:16.125Z,5.30
2023-02-23T09:48:28.284Z,6.47
2023-02-23T09:51:38.707Z,6.82
2023-02-23T09:54:42.152Z,6.13
2023-02-23T09:57:49.133Z,7.35
2023-02-23T10:01:07.637Z,6.30
2023-02-23T10:04:38.373Z,6.95
2023-02-23T10:08:00.849Z,13.27
2023-02-23T10:11:17.744Z,11.18
2023-02-23T10:14:40.345Z,13.73
2023-02-23T10:18:08.270Z,17.85
2023-02-23T10:21:21.293Z,24.13
2023-02-23T10:24:33.624Z,29.10
2023-02-23T10:27:44.732Z,62.28
2023-02-23T10:30:48.875Z,52.92
2023-02-23T10:33:54.003Z,72.82
2023-02-23T10:37:03.247Z,53.03
2023-02-23T10:40:08.571Z,35.67
2023-02-23T10:43:14.167Z,42.27
2023-02-23T10:46:23.651Z,47.63
2023-02-23T10:49:51.346Z,44.63
2023-02-23T10:53:08.142Z,58.57
2023-02-23T10:56:19.002Z,26.48
2023-02-23T10:59:23.263Z,14.88
2023-02-23T11:02:27.773Z,10.52
2023-02-23T11:05:47.047Z,8.80
2023-02-23T11:08:50.650Z,18.38
2023-02-23T11:11:59.007Z,15.32
2023-02-23T11:15:46.501Z,22.00
2023-02-23T11:19:02.645Z,22.75
2023-02-23T11:22:07.441Z,17.13
2023-02-23T11:25:30.194Z,14.00
2023-02-23T11:28:38.584Z,14.80
2023-02-23T11:31:49.635Z,18.73
2023-02-23T11:35:12.979Z,17.80
2023-02-23T11:38:30.244Z,16.17
2023-02-23T11:41:35.746Z,16.60
2023-02-23T11:44:39.591Z,17.13
2023-02-23T11:47:49.445Z,18.87
2023-02-23T11:50:55.136Z,28.08
2023-02-23T11:54:00.889Z,35.15
2023-02-23T11:57:04.848Z,32.03
2023-02-23T12:00:14.822Z,32.58
2023-02-23T12:03:24.258Z,29.85
2023-02-23T12:06:39.521Z,28.25
2023-02-23T12:09:46.027Z,27.70
2023-02-23T12:13:24.014Z,30.52
2023-02-23T12:16:34.224Z,27.30
2023-02-23T12:19:47.624Z,22.63
2023-02-23T12:23:08.883Z,21.75
2023-02-23T12:26:19.745Z,18.27
2023-02-23T12:29:45.375Z,19.50
2023-02-23T12:32:49.651Z,30.38
2023-02-23T12:36:02.709Z,38.78
2023-02-23T12:39:22.168Z,22.85
2023-02-23T12:42:39.837Z,21.95
2023-02-23T12:45:53.850Z,22.98
2023-02-23T12:49:14.775Z,25.25
2023-02-23T12:52:26.436Z,30.23
2023-02-23T12:55:42.431Z,31.15
2023-02-23T12:58:58.129Z,28.88
2023-02-23T13:02:09.310Z,25.40
2023-02-23T13:05:29.451Z,25.92
2023-02-23T13:08:48.564Z,26.10
2023-02-23T13:12:13.213Z,35.88
2023-02-23T13:15:31.983Z,35.90
2023-02-23T13:18:42.328Z,23.85
2023-02-23T13:21:56.934Z,23.80
2023-02-23T13:25:05.395Z,17.57
2023-02-23T13:28:18.600Z,20.33
2023-02-23T13:31:24.829Z,24.05
2023-02-23T13:34:34.543Z,22.00
2023-02-23T13:38:18.915Z,18.20
2023-02-23T13:41:43.632Z,24.40
2023-02-23T13:45:23.669Z,40.67
2023-02-23T13:48:41.812Z,37.50
2023-02-23T13:52:03.513Z,23.90
2023-02-23T13:55:29.452Z,20.13
2023-02-23T13:58:38.014Z,29.37
2023-02-23T14:01:46.073Z,20.00
2023-02-23T14:04:50.841Z,36.42
2023-02-23T14:08:05.220Z,42.37
2023-02-23T14:11:08.517Z,34.13
2023-02-23T14:14:36.939Z,37.83
2023-02-23T14:17:41.435Z,25.67
2023-02-23T14:21:10.324Z,23.90
2023-02-23T14:24:25.184Z,46.90
2023-02-23T14:27:44.584Z,50.47
2023-02-23T14:30:53.849Z,85.67
2023-02-23T14:34:01.432Z,60.65
2023-02-23T14:37:26.107Z,80.35
2023-02-23T14:40:35.764Z,63.57
2023-02-23T14:43:39.737Z,48.20
2023-02-23T14:46:56.310Z,49.08
2023-02-23T14:50:03.840Z,48.50
2023-02-23T14:53:15.694Z,49.35
2023-02-23T14:56:32.587Z,61.83
2023-02-23T14:59:43.537Z,46.22
2023-02-23T15:03:14.601Z,35.30
2023-02-23T15:06:17.589Z,41.65
2023-02-23T15:09:31.594Z,38.75
2023-02-23T15:12:39.736Z,30.57
2023-02-23T15:15:47.878Z,35.78
2023-02-23T15:18:52.922Z,37.90
2023-02-23T15:21:58.876Z,30.00
2023-02-23T15:25:10.369Z,29.48
2023-02-23T15:28:26.266Z,28.30
2023-02-23T15:31:31.814Z,25.92
2023-02-23T15:34:36.150Z,21.47
2023-02-23T15:37:45.326Z,24.42
2023-02-23T15:40:54.186Z,16.30
2023-02-23T15:44:08.005Z,13.93
2023-02-23T15:47:29.336Z,23.55
2023-02-23T15:50:37.211Z,25.00
2023-02-23T15:53:42.235Z,16.25
2023-02-23T15:56:50.274Z,24.67
2023-02-23T15:59:55.073Z,49.67
2023-02-23T16:02:58.397Z,59.95
2023-02-23T16:06:01.333Z,27.23
2023-02-23T16:09:27.018Z,41.17
2023-02-23T16:12:33.882Z,37.45
2023-02-23T16:15:39.409Z,38.30
2023-02-23T16:18:44.158Z,57.38
2023-02-23T16:21:57.614Z,52.67
2023-02-23T16:25:05.769Z,24.77
2023-02-23T16:28:16.256Z,53.28
2023-02-23T16:31:28.565Z,53.53
2023-02-23T16:34:45.534Z,50.25
2023-02-23T16:38:05.296Z,43.73
2023-02-23T16:41:18.020Z,53.75
2023-02-23T16:44:26.350Z,54.30
2023-02-23T16:47:49.221Z,30.37
2023-02-23T16:50:53.226Z,30.27
2023-02-23T16:53:57.099Z,30.75
2023-02-23T16:57:00.803Z,28.05
2023-02-23T17:00:16.272Z,38.85
2023-02-23T17:03:23.642Z,24.23
2023-02-23T17:06:27.715Z,26.13
2023-02-23T17:09:30.645Z,31.93
2023-02-23T17:12:34.050Z,27.42
2023-02-23T17:15:40.089Z,23.70
2023-02-23T17:18:43.968Z,21.83
2023-02-23T17:21:47.545Z,42.95
2023-02-23T17:24:50.584Z,20.25
2023-02-23T17:27:58.575Z,23.83
2023-02-23T17:31:04.061Z,23.50
2023-02-23T17:34:07.957Z,25.90
2023-02-23T17:37:11.155Z,25.52
2023-02-23T17:40:18.956Z,19.17
2023-02-23T17:43:24.152Z,21.98
2023-02-23T17:46:28.054Z,22.90
2023-02-23T17:49:31.371Z,20.90
2023-02-23T17:52:35.176Z,17.20
2023-02-23T17:55:38.520Z,16.70
2023-02-23T17:58:42.279Z,20.65
2023-02-23T18:01:48.179Z,11.90
2023-02-23T18:04:52.617Z,15.52
2023-02-23T18:07:55.846Z,9.68
2023-02-23T18:10:59.404Z,14.53
2023-02-23T18:14:05.650Z,8.45
2023-02-23T18:17:09.397Z,10.38
2023-02-23T18:20:15.745Z,9.90
2023-02-23T18:23:20.888Z,14.13
2023-02-23T18:26:25.559Z,10.93
2023-02-23T18:29:30.528Z,13.70
2023-02-23T18:32:33.550Z,13.55
2023-02-23T18:35:41.895Z,10.57
2023-02-23T18:38:45.964Z,36.90
2023-02-23T18:41:50.771Z,23.90
2023-02-23T18:44:54.317Z,28.67
2023-02-23T18:47:57.444Z,24.40
2023-02-23T18:51:02.418Z,44.37
2023-02-23T18:54:11.020Z,26.15
2023-02-23T18:57:14.309Z,20.90
2023-02-23T19:00:19.706Z,24.27
2023-02-23T19:03:23.005Z,18.02
2023-02-23T19:06:27.392Z,28.33
2023-02-23T19:09:31.369Z,37.42
2023-02-23T19:12:34.529Z,33.77
2023-02-23T19:15:37.921Z,28.38
2023-02-23T19:18:41.802Z,25.08
2023-02-23T19:21:45.549Z,30.97
2023-02-23T19:24:49.410Z,20.23
2023-02-23T19:27:52.682Z,24.40
2023-02-23T19:31:03.081Z,20.25
2023-02-23T19:34:09.581Z,27.20
2023-02-23T19:37:13.005Z,29.27
2023-02-23T19:40:23.692Z,24.42
2023-02-23T19:43:26.891Z,25.10
2023-02-23T19:46:30.688Z,37.65
2023-02-23T19:49:34.258Z,49.55
2023-02-23T19:52:39.614Z,30.27
2023-02-23T19:55:42.746Z,36.65
2023-02-23T19:58:47.166Z,55.00
2023-02-23T20:01:51.929Z,31.17
2023-02-23T20:04:55.884Z,37.53
2023-02-23T20:08:00.030Z,45.40
2023-02-23T20:11:06.613Z,45.75
2023-02-23T20:14:11.441Z,22.53
2023-02-23T20:17:15.297Z,35.85
2023-02-23T20:20:20.261Z,38.42
2023-02-23T20:23:24.175Z,29.20
2023-02-23T20:26:30.363Z,33.78
2023-02-23T20:29:35.087Z,40.35
2023-02-23T20:32:39.442Z,38.80
2023-02-23T20:35:43.355Z,30.50
2023-02-23T20:38:46.270Z,40.20
2023-02-23T20:41:54.322Z,20.63
2023-02-23T20:44:58.004Z,22.73
2023-02-23T20:48:02.176Z,38.67
2023-02-23T20:51:07.737Z,18.10
2023-02-23T20:54:11.998Z,15.33
2023-02-23T20:57:14.868Z,25.73
2023-02-23T21:00:23.605Z,15.68
2023-02-23T21:03:26.638Z,19.08
2023-02-23T21:06:33.073Z,25.00
2023-02-23T21:09:36.159Z,25.50
2023-02-23T21:12:39.454Z,30.15
2023-02-23T21:15:45.131Z,10.77
2023-02-23T21:19:04.663Z,9.15
2023-02-23T21:22:07.707Z,25.75
2023-02-23T21:25:12.728Z,12.37
2023-02-23T21:28:16.636Z,33.45
2023-02-23T21:31:20.849Z,19.45
2023-02-23T21:34:24.715Z,13.27
2023-02-23T21:37:27.981Z,38.15
2023-02-23T21:40:31.824Z,22.05
2023-02-23T21:43:37.417Z,34.83
2023-02-23T21:46:41.006Z,21.97
2023-02-23T21:49:50.026Z,21.10
2023-02-23T21:52:58.353Z,24.45
2023-02-23T21:56:07.905Z,26.73
2023-02-23T21:59:11.388Z,27.02
2023-02-23T22:02:14.804Z,28.20
2023-02-23T22:05:19.451Z,30.23
2023-02-23T22:08:22.690Z,30.60
2023-02-23T22:11:27.998Z,23.75
2023-02-23T22:14:31.196Z,16.33
2023-02-23T22:17:36.860Z,21.83
2023-02-23T22:20:45.770Z,15.65
2023-02-23T22:23:50.677Z,17.02
2023-02-23T22:26:56.521Z,13.50
2023-02-23T22:30:02.150Z,19.08
2023-02-23T22:33:05.291Z,12.65
2023-02-23T22:36:11.282Z,15.38
2023-02-23T22:39:19.154Z,15.57
2023-02-23T22:42:25.275Z,17.38
2023-02-23T22:45:28.951Z,21.23
2023-02-23T22:48:32.127Z,19.03
2023-02-23T22:51:35.355Z,11.38
2023-02-23T22:54:40.309Z,21.30
2023-02-23T22:57:44.465Z,18.57
2023-02-23T23:01:03.846Z,17.50
2023-02-23T23:04:10.938Z,12.00
2023-02-23T23:07:15.055Z,13.43
2023-02-23T23:10:19.320Z,12.57
2023-02-23T23:13:24.405Z,20.50
2023-02-23T23:16:32.548Z,12.50
2023-02-23T23:19:39.425Z,16.60
2023-02-23T23:22:42.523Z,13.35
2023-02-23T23:25:49.404Z,12.70
2023-02-23T23:28:58.489Z,14.90
2023-02-23T23:32:05.607Z,14.20
2023-02-23T23:35:14.013Z,11.35
2023-02-23T23:38:17.814Z,15.43
2023-02-23T23:41:21.587Z,10.57
2023-02-23T23:44:29.955Z,17.35
2023-02-23T23:47:32.960Z,19.23
2023-02-23T23:50:37.109Z,22.43
2023-02-23T23:53:41.025Z,14.35
2023-02-23T23:56:45.330Z,18.38
2023-02-23T23:59:49.475Z,17.23
